This is the latest recevied weather packets stored in our database for station/object K1WJY. If no packets are shown the sender has not sent any weather packets the latest 10 day(s).
| Time | Temp. | Humidity | Pressure | Rain* | Wind** | Luminosity | Snow |
|---|---|---|---|---|---|---|---|
| 1787575651 | 18.33° C | 99% | 1016 hPa | 0 mm | - | 98 W/m² | - |
| 1787575347 | 17.78° C | 99% | 1015.9 hPa | 0 mm | - | 96 W/m² | - |
| 1787575047 | 17.78° C | 99% | 1015.9 hPa | 0 mm | - | 81 W/m² | - |
| 1787574742 | 18.33° C | 99% | 1015.8 hPa | 0 mm | - | 87 W/m² | - |
| 1787574437 | 18.33° C | 99% | 1015.7 hPa | 0 mm | - | 93 W/m² | - |
| 1787574136 | 18.33° C | 99% | 1016 hPa | 0 mm | - | 73 W/m² | - |
| 1787573836 | 18.33° C | 99% | 1016.1 hPa | 0 mm | - | 75 W/m² | - |
| 1787573535 | 18.33° C | 99% | 1016.1 hPa | 0 mm | - | 63 W/m² | - |
| 1787573232 | 17.78° C | 99% | 1015.7 hPa | 0 mm | - | 71 W/m² | - |
| 1787572928 | 17.78° C | 99% | 1015.8 hPa | 0 mm | - | 66 W/m² | - |
| 1787572624 | 17.78° C | 99% | 1015.9 hPa | 0 mm | - | 57 W/m² | - |
| 1787572323 | 17.78° C | 99% | 1015.6 hPa | 0 mm | - | 58 W/m² | - |
| 1787572018 | 17.78° C | 99% | 1015.9 hPa | 0 mm | - | 37 W/m² | - |
| 1787571717 | 17.78° C | 99% | 1015.8 hPa | 0 mm | - | 26 W/m² | - |
| 1787571417 | 17.78° C | 99% | 1015.6 hPa | 0 mm | - | 37 W/m² | - |
| 1787571112 | 17.78° C | 99% | 1015.6 hPa | 0 mm | - | 46 W/m² | - |
| 1787570808 | 17.78° C | 99% | 1015.7 hPa | 0 mm | - | 34 W/m² | - |
| 1787570503 | 17.78° C | 99% | 1015.7 hPa | 0 mm | - | 39 W/m² | - |
| 1787570200 | 17.78° C | 99% | 1015.8 hPa | 0 mm | - | 33 W/m² | - |
| 1787569896 | 17.78° C | 99% | 1015.8 hPa | 0 mm | - | 33 W/m² | - |
| 1787569592 | 17.78° C | 99% | 1015.6 hPa | 0 mm | - | 36 W/m² | - |
| 1787569286 | 17.78° C | 99% | 1015.6 hPa | 0 mm | - | 46 W/m² | - |
| 1787568985 | 17.78° C | 99% | 1015.7 hPa | 0 mm | - | 24 W/m² | - |
| 1787568681 | 17.78° C | 99% | 1015.5 hPa | 0 mm | - | 17 W/m² | - |
| 1787568376 | 17.78° C | 99% | 1015.2 hPa | 0 mm | - | 17 W/m² | - |
* Rain latest hour (hover to see other rain measurements)
** Current wind speed in m/s (hover to see current wind gust speed)